Kaohsiung International Airport
RCKH : now visible

Airfield :











YOU CAN JOIN US ON...

 
LOGIN :

Register | Disclaimer

   EN    FR    IT 

 









Legend :    VFR   Marginal VFR   IFR   Intensive IFR   Very Intensive IFR
Visi :
Ceiling :
>= 8 km
>= 3000ft
5 to 8 km
1000 to 3000 ft
1500m to 5 km
500 to 1000 ft
800 to 1500m
200 to 500 ft
< 800m
< 200 ft
Symbols :   Thunderstorms  Fog  Heavy snow  Heavy precipitations  Wind > 20 kt







- Airport Elevation : 31 ft
- IATA code : KHH


RCKH - Kaohsiung International

CURRENT METAR :
  • 190030Z VRB02KT 9999 FEW013 SCT022 BKN250 34/24 Q1010 NOSIG RMK A2984

EXPIRED METARs :
  • 190024Z VRB01KT 9999 FEW013 BKN250 34/25 Q1010 NOSIG RMK A2983
  • 190000Z VRB01KT 9999 FEW013 BKN250 32/25 Q1010 NOSIG RMK A2983
  • 182330Z 05004KT 010V090 9999 FEW014 BKN250 30/24 Q1010 NOSIG RMK A2983
  • 182300Z 06005KT 030V110 9999 FEW014 SCT250 29/25 Q1010 NOSIG RMK A2983
  • 182230Z 03004KT 350V060 9999 FEW014 SCT250 28/25 Q1010 NOSIG RMK A2983
  • 182200Z 04004KT 9999 FEW014 SCT250 28/25 Q1009 NOSIG RMK A2982

TAF TAF RCKH
Valid from the 19 at 00:00 until the 20 at 06:00 UTC


182300Z 1900/2006 28007KT 9999 FEW016 BKN032
TEMPO 1900/1903 05005KT
BECMG 1911/1913 34005KT
TEMPO 1919/2001 07005KT
RCAA FIR / Asia



MET'MAP, your aeronautical weather chart ! - Copyright ORBIFLY December 2007 - Disclaimer

ORBIFLY MET'MAP TEAM :

Programming & Development : Alexandra Zaïnal
Concept & Development : Baudouin d'Aumeries
Co-Development & Prog : Marc-Olivier Méhu
Technical & hardware support : Manuel Goepfert

Contact : metmap@orbifly.com




SOURCES & CREDITS :

   NOAA       Earth
Advisory